Perito Moreno, Argentina

4:08 AM ART en Noviembre 23, 2014 (GMT -0300)
Balmaceda | Change Station
CLOSE
Current Station
Aeropuerto
Location: Balmaceda,
Altura: 1719 ft
Estaciones meteorológicas cercanas

Alt 1719 ft 45.91 °S, 71.69 °W | Updated 8 minutes ago

Clear
Despejado
43 ° F
Sensación térmica 38 ° F
N
8
Viento Variable Viento desde ONO

Hoy
Alta -- | Baja -- ° F
--% Posibilidad de precipitaciones
Ayer
Alta -- | Baja -- ° F
Precip. -- pul
5:52 AM 9:09 PM
Luna nueva, 1% visible
Presión 29.59 pul
Visibilidad -9999.0 Millas
Nubes
Vientos helados 38 ° F
Punto de rocío 39 ° F
Humedad 87%
Precipitaciones 0.00 pul
Espesor de la nieve No disponible.
UV No disponible.
Polen No disponible.
Calidad del aire No disponible.
Flu Activity No disponible.
METAR SCBA 230700Z AUTO 30007KT CAVOK 06/04 Q1002

More Conditions Fewer Conditions

Presión 29.59 pul
Visibilidad -9999.0 Millas
Nubes
Vientos helados 38 ° F
Punto de rocío 39 ° F
Humedad 87%
Precipitaciones 0.00 pul
Espesor de la nieve No disponible.
UV No disponible.
Polen No disponible.
Calidad del aire No disponible.
Flu Activity No disponible.
METAR SCBA 230700Z AUTO 30007KT CAVOK 06/04 Q1002

More Conditions Fewer Conditions

10-Day Weather Forecast

Almanac

Astronomía

Nov. 23, 2014 Salida Puesta
Hora real
Crepúsculo civil
Crepúsculo náutico
Crepúsculo astronómico
Luna
Horas de luz
Horas de luz
Tomorrow will be .
, % of the Moon is Illuminated

Extremos de hoy

Máximos del país Bajas del país

Community

WunderPhotos

Upload Photos

1,773,023 ¡fotos cargadas!

WunderBlogs® & News

Nearby

Calidad del aire

  Calidad del aire Índice AQ Contaminante
Not available.

Grosos de nieve

Estación Profundido Altura

Actividad de terremotos

Ciudad Distance Mag. Tiempo y dato
Magnitud mínima muestra es 2,5.

Temperaturas de aguas costeras

Lugar Temperatura

Estaciones meteorológicas cercanas